Time;durP1;ratioP1;P1;durP2;ratioP2;P2;SDS_P1;SDS_P2;PMS_P1;PMS_P2;Temp;Humidity;BMP_temperature;BMP_pressure;BME280_temperature;BME280_humidity;BME280_pressure;Samples;Min_cycle;Max_cycle;Signal;HPM_P1;HPM_P2
2021/10/15 00:01:09;;;;;;;1.58;1.50;;;;;;;;;;7331648;19;153985;-15
2021/10/15 00:03:37;;;;;;;1.33;1.33;;;;;;;;;;7331367;19;153562;-14
2021/10/15 00:06:05;;;;;;;1.52;1.50;;;;;;;;;;7331046;19;162355;-14
2021/10/15 00:08:33;;;;;;;1.63;1.52;;;;;;;;;;7331083;19;162511;-12
2021/10/15 00:11:01;;;;;;;1.65;1.55;;;;;;;;;;7330767;19;153986;-12
2021/10/15 00:13:29;;;;;;;1.42;1.30;;;;;;;;;;7334368;19;153555;-16
2021/10/15 00:15:57;;;;;;;1.63;1.52;;;;;;;;;;7330832;19;161576;-14
2021/10/15 00:18:25;;;;;;;1.48;1.48;;;;;;;;;;7330544;19;162358;-13
2021/10/15 00:20:53;;;;;;;1.60;1.50;;;;;;;;;;7330249;19;154676;-14
2021/10/15 00:23:21;;;;;;;1.30;1.30;;;;;;;;;;7330957;19;153486;-13
2021/10/15 00:25:49;;;;;;;1.40;1.40;;;;;;;;;;7321281;19;161791;-16
2021/10/15 00:28:17;;;;;;;1.38;1.27;;;;;;;;;;7331513;19;162690;-13
2021/10/15 00:30:45;;;;;;;1.38;1.38;;;;;;;;;;7329402;19;154105;-15
2021/10/15 00:33:13;;;;;;;1.20;1.20;;;;;;;;;;7329516;19;153676;-12
2021/10/15 09:45:32;;;;;;;1.45;1.10;;;;;;;;;;7370496;19;132504;-13
2021/10/15 09:48:16;;;;;;;1.42;1.10;;;;;;;;;;7364790;19;153506;-15
2021/10/15 09:50:44;;;;;;;3.03;1.10;;;;;;;;;;7364605;19;162026;-13
2021/10/15 09:53:13;;;;;;;1.60;1.38;;;;;;;;;;7363640;19;162495;-15
2021/10/15 09:55:44;;;;;;;1.17;1.15;;;;;;;;;;7366750;19;153880;-14
2021/10/15 09:58:16;;;;;;;2.42;0.93;;;;;;;;;;7363372;19;153427;-13
2021/10/15 10:00:50;;;;;;;1.70;1.15;;;;;;;;;;7364144;19;162556;-12
2021/10/15 10:03:20;;;;;;;1.08;0.98;;;;;;;;;;7364057;19;162515;-15
2021/10/15 10:05:49;;;;;;;1.10;1.00;;;;;;;;;;7364453;19;153972;-14
2021/10/15 10:08:17;;;;;;;1.52;1.00;;;;;;;;;;7364151;19;153773;-14
2021/10/15 10:10:46;;;;;;;1.20;1.10;;;;;;;;;;7363893;19;161990;-15
2021/10/15 10:13:16;;;;;;;4.32;1.20;;;;;;;;;;7363183;19;162674;-13
2021/10/15 10:15:45;;;;;;;1.23;1.10;;;;;;;;;;7364163;19;153691;-15
2021/10/15 10:18:19;;;;;;;1.38;1.17;;;;;;;;;;7364202;19;153451;-12
2021/10/15 10:20:51;;;;;;;1.25;1.00;;;;;;;;;;7363644;19;161991;-16
2021/10/15 10:23:37;;;;;;;1.25;1.10;;;;;;;;;;7362434;19;162333;-16
2021/10/15 10:26:08;;;;;;;1.00;1.00;;;;;;;;;;7363995;19;154003;-13
2021/10/15 10:28:36;;;;;;;1.13;1.02;;;;;;;;;;7363878;19;153643;-14
2021/10/15 10:31:07;;;;;;;1.40;1.05;;;;;;;;;;7363352;19;161817;-15
2021/10/15 10:33:57;;;;;;;1.13;1.00;;;;;;;;;;7360800;19;162351;-14
2021/10/15 10:36:27;;;;;;;0.90;0.90;;;;;;;;;;7362225;19;154032;-16
2021/10/15 10:38:55;;;;;;;1.88;1.10;;;;;;;;;;7362449;19;153511;-15
2021/10/15 10:41:28;;;;;;;1.83;0.95;;;;;;;;;;7362858;19;161814;-15
2021/10/15 10:43:56;;;;;;;1.83;0.80;;;;;;;;;;7360476;19;162519;-16
2021/10/15 10:46:26;;;;;;;1.13;1.08;;;;;;;;;;7332764;19;154669;-13
2021/10/15 10:48:54;;;;;;;1.38;1.10;;;;;;;;;;7333867;19;153525;-15
2021/10/15 10:51:24;;;;;;;1.40;0.90;;;;;;;;;;7332341;19;162053;-16
2021/10/15 10:54:07;;;;;;;1.02;0.82;;;;;;;;;;7331619;19;162138;-15
2021/10/15 10:56:39;;;;;;;0.90;0.90;;;;;;;;;;7333734;19;153886;-14
2021/10/15 10:59:19;;;;;;;1.42;0.98;;;;;;;;;;7332483;19;153713;-12
2021/10/15 11:01:51;;;;;;;3.30;1.10;;;;;;;;;;7332074;19;162623;-14
2021/10/15 11:04:29;;;;;;;3.92;1.05;;;;;;;;;;7334758;19;162416;-13
2021/10/15 11:07:00;;;;;;;1.50;0.95;;;;;;;;;;7333780;19;154100;-13
2021/10/15 11:09:42;;;;;;;1.55;0.98;;;;;;;;;;7333601;19;153573;-14
2021/10/15 11:12:14;;;;;;;1.73;0.90;;;;;;;;;;7333225;19;162018;-12
2021/10/15 11:14:56;;;;;;;1.02;0.90;;;;;;;;;;7331226;19;162366;-12
2021/10/15 11:17:41;;;;;;;1.35;1.00;;;;;;;;;;7333435;19;153714;-15
2021/10/15 11:20:19;;;;;;;2.88;1.00;;;;;;;;;;7333216;19;153539;-11
2021/10/15 11:23:03;;;;;;;2.42;1.10;;;;;;;;;;7332805;19;161831;-13
2021/10/15 11:25:38;;;;;;;2.28;1.20;;;;;;;;;;7332432;19;162348;-14
2021/10/15 11:28:10;;;;;;;1.95;0.90;;;;;;;;;;7333259;19;153956;-11
2021/10/15 11:30:42;;;;;;;1.87;0.80;;;;;;;;;;7333226;19;153816;-14
2021/10/15 11:33:12;;;;;;;2.23;1.20;;;;;;;;;;7331148;19;161976;-16
2021/10/15 11:35:43;;;;;;;0.88;0.88;;;;;;;;;;7332563;19;162315;-14
2021/10/15 11:38:13;;;;;;;1.40;1.00;;;;;;;;;;7332905;19;154016;-15
2021/10/15 11:40:48;;;;;;;3.35;1.23;;;;;;;;;;7332817;19;153507;-18
2021/10/15 11:43:30;;;;;;;1.70;0.82;;;;;;;;;;7331641;19;162013;-14
2021/10/15 11:46:11;;;;;;;1.10;0.70;;;;;;;;;;7331135;19;162143;-12
2021/10/15 11:48:51;;;;;;;1.17;0.68;;;;;;;;;;7332583;19;153962;-15
2021/10/15 11:51:24;;;;;;;1.45;0.98;;;;;;;;;;7332788;19;153578;-13
2021/10/15 11:53:58;;;;;;;1.17;0.98;;;;;;;;;;7331078;19;161896;-13
2021/10/15 11:56:32;;;;;;;1.70;0.82;;;;;;;;;;7331871;19;162663;-16
2021/10/15 11:59:05;;;;;;;1.90;0.90;;;;;;;;;;7332451;19;154072;-14
2021/10/15 12:01:34;;;;;;;0.90;0.90;;;;;;;;;;7332145;19;153502;-18
2021/10/15 12:04:08;;;;;;;1.80;0.85;;;;;;;;;;7331842;19;161811;-17
2021/10/15 12:06:47;;;;;;;1.00;0.90;;;;;;;;;;7331605;19;162341;-13
2021/10/15 12:09:20;;;;;;;0.80;0.70;;;;;;;;;;7332017;19;153991;-15
2021/10/15 12:11:55;;;;;;;1.83;1.00;;;;;;;;;;7330750;19;153617;-16
2021/10/15 12:14:32;;;;;;;0.90;0.80;;;;;;;;;;7331120;19;161842;-16
2021/10/15 12:17:01;;;;;;;1.55;0.90;;;;;;;;;;7335390;19;162577;-14
2021/10/15 12:19:35;;;;;;;1.77;1.10;;;;;;;;;;7331677;19;154247;-14
2021/10/15 12:22:09;;;;;;;0.90;0.90;;;;;;;;;;7333573;19;153599;-17
2021/10/15 12:24:49;;;;;;;0.90;0.90;;;;;;;;;;7333942;19;161702;-15
2021/10/15 12:27:35;;;;;;;0.93;0.90;;;;;;;;;;7334104;19;162598;-14
2021/10/15 12:30:13;;;;;;;1.38;0.73;;;;;;;;;;7331328;19;153934;-15
2021/10/15 12:32:42;;;;;;;1.33;0.98;;;;;;;;;;7331451;19;153614;-12
2021/10/15 12:35:13;;;;;;;1.08;0.90;;;;;;;;;;7328862;19;162105;-15
2021/10/15 12:37:51;;;;;;;0.82;0.82;;;;;;;;;;7330752;19;162356;-14
2021/10/15 12:40:24;;;;;;;0.95;0.90;;;;;;;;;;7330995;19;153992;-14
2021/10/15 12:42:55;;;;;;;1.23;0.90;;;;;;;;;;7330132;19;153522;-14
2021/10/15 12:45:26;;;;;;;1.42;1.13;;;;;;;;;;7330355;19;161825;-15
2021/10/15 12:48:01;;;;;;;0.90;0.90;;;;;;;;;;7332361;19;162477;-14
2021/10/15 12:50:32;;;;;;;1.77;1.00;;;;;;;;;;7330853;19;153939;-15
2021/10/15 12:53:18;;;;;;;0.90;0.90;;;;;;;;;;7330434;19;153559;-14
2021/10/15 12:55:53;;;;;;;0.95;0.70;;;;;;;;;;7327423;19;161767;-15
2021/10/15 12:58:24;;;;;;;1.35;1.00;;;;;;;;;;7330073;19;162413;-15
2021/10/15 13:00:55;;;;;;;1.90;1.10;;;;;;;;;;7328895;19;154049;-13
2021/10/15 13:03:23;;;;;;;1.02;0.90;;;;;;;;;;7330100;19;153801;-13
2021/10/15 13:05:57;;;;;;;0.85;0.80;;;;;;;;;;7329763;19;161872;-14
2021/10/15 13:08:26;;;;;;;1.75;1.00;;;;;;;;;;7328915;19;162553;-15
2021/10/15 13:10:54;;;;;;;0.93;0.93;;;;;;;;;;7330302;19;153983;-14
2021/10/15 13:13:23;;;;;;;0.93;0.90;;;;;;;;;;7332221;19;153515;-14
2021/10/15 13:15:51;;;;;;;1.60;0.88;;;;;;;;;;7326970;19;161895;-14
2021/10/15 13:18:19;;;;;;;0.77;0.77;;;;;;;;;;7329343;19;162575;-14
2021/10/15 13:20:51;;;;;;;1.40;1.00;;;;;;;;;;7329774;19;154106;-14
2021/10/15 13:23:19;;;;;;;0.80;0.80;;;;;;;;;;7329670;19;153651;-14
2021/10/15 13:25:47;;;;;;;1.33;0.90;;;;;;;;;;7324760;19;161996;-15
2021/10/15 13:28:15;;;;;;;0.93;0.90;;;;;;;;;;7332727;19;162247;-14
2021/10/15 13:30:43;;;;;;;1.10;1.10;;;;;;;;;;7328132;19;154268;-12
2021/10/15 13:33:11;;;;;;;0.88;0.88;;;;;;;;;;7332118;19;153628;-14
2021/10/15 13:35:45;;;;;;;1.10;0.90;;;;;;;;;;7324346;19;161911;-13
2021/10/15 13:38:16;;;;;;;1.42;1.10;;;;;;;;;;7326284;19;162380;-13
2021/10/15 13:52:03;;;;;;;0.80;0.80;;;;;;;;;;7328397;19;154516;-14
2021/10/15 13:54:32;;;;;;;0.90;0.90;;;;;;;;;;7327168;19;153742;-17
2021/10/15 13:57:03;;;;;;;0.85;0.85;;;;;;;;;;7328725;19;161772;-13
2021/10/15 13:59:36;;;;;;;0.80;0.80;;;;;;;;;;7328429;19;162319;-13
2021/10/15 14:02:08;;;;;;;0.90;0.90;;;;;;;;;;7328667;19;153990;-14
2021/10/15 14:04:39;;;;;;;0.70;0.70;;;;;;;;;;7328738;19;153305;-13
2021/10/15 14:07:09;;;;;;;0.85;0.82;;;;;;;;;;7327446;19;162215;-14
2021/10/15 14:09:39;;;;;;;1.05;0.85;;;;;;;;;;7328156;19;162158;-13
2021/10/15 14:12:10;;;;;;;0.80;0.80;;;;;;;;;;7328358;19;154264;-13
2021/10/15 14:14:39;;;;;;;0.90;0.90;;;;;;;;;;7327452;19;153639;-13
2021/10/15 14:17:08;;;;;;;0.93;0.93;;;;;;;;;;7327947;19;161811;-15
2021/10/15 14:19:37;;;;;;;0.73;0.73;;;;;;;;;;7328911;19;162530;-15
2021/10/15 14:22:07;;;;;;;0.85;0.85;;;;;;;;;;7335358;19;153986;-15
2021/10/15 14:24:35;;;;;;;0.93;0.88;;;;;;;;;;7334155;19;153830;-13
2021/10/15 14:27:05;;;;;;;0.75;0.75;;;;;;;;;;7334987;19;162064;-13
2021/10/15 14:29:34;;;;;;;0.90;0.90;;;;;;;;;;7334737;19;162562;-15
2021/10/15 14:32:03;;;;;;;0.70;0.70;;;;;;;;;;7335045;19;154016;-13
2021/10/15 14:34:31;;;;;;;0.80;0.80;;;;;;;;;;7334094;19;153945;-14
2021/10/15 14:36:59;;;;;;;0.70;0.70;;;;;;;;;;7334459;19;161848;-16
2021/10/15 14:39:27;;;;;;;0.50;0.50;;;;;;;;;;7334286;19;162614;-13
2021/10/15 14:41:55;;;;;;;0.70;0.70;;;;;;;;;;7334879;19;153962;-15
2021/10/15 14:44:35;;;;;;;0.80;0.80;;;;;;;;;;7332488;19;153647;-14
2021/10/15 14:47:03;;;;;;;1.40;0.73;;;;;;;;;;7334402;19;162134;-17
2021/10/15 14:49:31;;;;;;;0.80;0.80;;;;;;;;;;7333122;19;162628;-13
2021/10/15 14:51:59;;;;;;;0.60;0.60;;;;;;;;;;7334434;19;154125;-14
2021/10/15 14:54:27;;;;;;;0.70;0.70;;;;;;;;;;7334107;19;153533;-14
2021/10/15 14:56:55;;;;;;;0.57;0.57;;;;;;;;;;7334144;19;161852;-13
2021/10/15 14:59:24;;;;;;;0.90;0.90;;;;;;;;;;7333684;19;162371;-13
2021/10/15 15:01:52;;;;;;;0.85;0.85;;;;;;;;;;7334049;19;154011;-15
2021/10/15 15:04:20;;;;;;;0.70;0.70;;;;;;;;;;7333933;19;153603;-16
2021/10/15 15:06:48;;;;;;;0.70;0.70;;;;;;;;;;7333838;19;162295;-15
2021/10/15 15:09:16;;;;;;;0.90;0.90;;;;;;;;;;7333609;19;162360;-16
2021/10/15 15:11:44;;;;;;;0.70;0.70;;;;;;;;;;7333985;19;153709;-14
2021/10/15 15:14:12;;;;;;;0.60;0.60;;;;;;;;;;7333947;19;153738;-13
2021/10/15 15:16:40;;;;;;;0.70;0.70;;;;;;;;;;7329929;19;161961;-13
2021/10/15 15:19:08;;;;;;;0.98;0.80;;;;;;;;;;7333326;19;162453;-16
2021/10/15 15:21:44;;;;;;;;;;;;;;;;;;7333966;19;154054;-16
2021/10/15 15:24:13;;;;;;;0.65;0.65;;;;;;;;;;7332530;19;153411;-13
2021/10/15 15:26:42;;;;;;;0.60;0.60;;;;;;;;;;7333229;19;162030;-14
2021/10/15 15:29:12;;;;;;;0.70;0.70;;;;;;;;;;7332560;19;162234;-14
2021/10/15 15:31:40;;;;;;;1.75;0.90;;;;;;;;;;7332811;19;154016;-16
2021/10/15 15:34:08;;;;;;;0.68;0.68;;;;;;;;;;7332985;19;153565;-14
2021/10/15 15:36:37;;;;;;;1.27;0.80;;;;;;;;;;7330568;19;162472;-15
2021/10/15 15:39:07;;;;;;;0.80;0.80;;;;;;;;;;7332774;19;162391;-15
2021/10/15 15:41:38;;;;;;;0.90;0.60;;;;;;;;;;7333180;19;154036;-15
2021/10/15 15:44:14;;;;;;;0.70;0.70;;;;;;;;;;7331612;19;153627;-17
2021/10/15 15:46:43;;;;;;;0.60;0.60;;;;;;;;;;7332426;19;162176;-16
2021/10/15 15:49:12;;;;;;;0.80;0.80;;;;;;;;;;7332353;19;162428;-17
2021/10/15 15:51:40;;;;;;;0.73;0.73;;;;;;;;;;7332763;19;154292;-16
2021/10/15 15:54:08;;;;;;;0.70;0.70;;;;;;;;;;7332841;19;153512;-16
2021/10/15 15:56:36;;;;;;;0.77;0.77;;;;;;;;;;7330313;19;162071;-17
2021/10/15 15:59:04;;;;;;;0.60;0.60;;;;;;;;;;7334557;19;162700;-16
2021/10/15 16:01:32;;;;;;;1.58;0.88;;;;;;;;;;7333103;19;153817;-17
2021/10/15 16:04:00;;;;;;;0.70;0.70;;;;;;;;;;7334216;19;153890;-13
2021/10/15 16:06:28;;;;;;;0.60;0.60;;;;;;;;;;7335215;19;161824;-14
2021/10/15 16:08:56;;;;;;;1.08;0.68;;;;;;;;;;7335128;19;162679;-13
2021/10/15 16:11:24;;;;;;;0.60;0.60;;;;;;;;;;7335408;19;156252;-16
2021/10/15 16:13:52;;;;;;;0.70;0.70;;;;;;;;;;7335209;19;153870;-15
2021/10/15 16:16:20;;;;;;;0.60;0.60;;;;;;;;;;7332409;19;161954;-15
2021/10/15 16:18:47;;;;;;;0.60;0.60;;;;;;;;;;7334257;19;162765;-17
2021/10/15 16:21:15;;;;;;;0.80;0.80;;;;;;;;;;7333994;19;154029;-14
2021/10/15 16:23:43;;;;;;;0.70;0.70;;;;;;;;;;7333617;19;153709;-15
2021/10/15 16:26:12;;;;;;;0.75;0.70;;;;;;;;;;7333410;19;162018;-15
2021/10/15 16:28:40;;;;;;;0.60;0.60;;;;;;;;;;7334311;19;162335;-20
2021/10/15 16:31:12;;;;;;;0.70;0.52;;;;;;;;;;7334493;19;153979;-15
2021/10/15 16:33:41;;;;;;;0.60;0.60;;;;;;;;;;7334422;19;153706;-12
2021/10/15 16:36:10;;;;;;;0.80;0.80;;;;;;;;;;7333353;19;161848;-15
2021/10/15 16:38:39;;;;;;;1.42;0.70;;;;;;;;;;7334068;19;162566;-15
2021/10/15 16:41:08;;;;;;;0.65;0.65;;;;;;;;;;7333238;19;154119;-16
2021/10/15 16:43:36;;;;;;;0.80;0.80;;;;;;;;;;7332620;19;153644;-15
2021/10/15 16:46:07;;;;;;;0.90;0.90;;;;;;;;;;7334429;19;162016;-13
2021/10/15 16:48:37;;;;;;;0.77;0.77;;;;;;;;;;7332777;19;162457;-14
2021/10/15 16:51:06;;;;;;;0.68;0.68;;;;;;;;;;7334186;19;154770;-13
2021/10/15 16:53:34;;;;;;;0.70;0.70;;;;;;;;;;7332884;19;153565;-15
2021/10/15 16:56:02;;;;;;;0.60;0.60;;;;;;;;;;7328643;19;161878;-15
2021/10/15 16:58:30;;;;;;;0.50;0.50;;;;;;;;;;7333964;19;162635;-13
2021/10/15 17:00:58;;;;;;;0.80;0.80;;;;;;;;;;7334047;19;154074;-16
2021/10/15 17:03:26;;;;;;;0.50;0.50;;;;;;;;;;7333708;19;153528;-15
2021/10/15 17:05:54;;;;;;;0.73;0.73;;;;;;;;;;7330514;19;162031;-15
2021/10/15 17:08:22;;;;;;;0.70;0.70;;;;;;;;;;7332165;19;162580;-16
2021/10/15 17:10:50;;;;;;;0.52;0.52;;;;;;;;;;7333789;19;153988;-14
2021/10/15 17:13:18;;;;;;;0.55;0.55;;;;;;;;;;7330179;19;153722;-16
2021/10/15 17:15:47;;;;;;;0.70;0.70;;;;;;;;;;7332306;19;161622;-23
2021/10/15 17:18:15;;;;;;;0.60;0.60;;;;;;;;;;7332674;19;162606;-16
2021/10/15 17:20:43;;;;;;;0.75;0.75;;;;;;;;;;7333310;19;154062;-15
2021/10/15 17:23:11;;;;;;;0.80;0.80;;;;;;;;;;7333346;19;153709;-15
2021/10/15 17:25:39;;;;;;;0.55;0.55;;;;;;;;;;7333368;19;162027;-13
2021/10/15 17:28:08;;;;;;;0.70;0.70;;;;;;;;;;7332908;19;162416;-13
2021/10/15 17:30:36;;;;;;;0.50;0.50;;;;;;;;;;7330172;19;154780;-15
2021/10/15 17:33:05;;;;;;;0.70;0.70;;;;;;;;;;7329857;19;153592;-13
2021/10/15 17:35:33;;;;;;;0.70;0.70;;;;;;;;;;7329167;19;162086;-16
2021/10/15 17:38:03;;;;;;;0.65;0.65;;;;;;;;;;7328329;19;162499;-14
2021/10/15 17:40:32;;;;;;;0.80;0.80;;;;;;;;;;7330411;19;154067;-14
2021/10/15 17:43:00;;;;;;;0.80;0.80;;;;;;;;;;7328372;19;153581;-14
2021/10/15 17:45:29;;;;;;;0.70;0.70;;;;;;;;;;7330118;19;162072;-16
2021/10/15 17:47:57;;;;;;;0.90;0.90;;;;;;;;;;7327857;19;162452;-15
2021/10/15 17:50:25;;;;;;;0.70;0.70;;;;;;;;;;7329761;19;154109;-17
2021/10/15 17:52:53;;;;;;;0.90;0.90;;;;;;;;;;7329414;19;153533;-13
2021/10/15 17:55:21;;;;;;;0.80;0.80;;;;;;;;;;7335580;19;162114;-17
2021/10/15 17:57:49;;;;;;;0.63;0.63;;;;;;;;;;7335994;19;162202;-15
2021/10/15 18:00:20;;;;;;;0.65;0.65;;;;;;;;;;7338713;19;153967;-14
2021/10/15 18:02:54;;;;;;;0.57;0.57;;;;;;;;;;7337661;19;153517;-15
2021/10/15 18:05:28;;;;;;;0.77;0.77;;;;;;;;;;7338653;19;162025;-17
2021/10/15 18:07:57;;;;;;;0.70;0.70;;;;;;;;;;7338426;19;164551;-16
2021/10/15 18:10:25;;;;;;;0.60;0.60;;;;;;;;;;7339011;19;153961;-14
2021/10/15 18:12:53;;;;;;;0.57;0.57;;;;;;;;;;7338165;19;153466;-14
2021/10/15 18:15:22;;;;;;;0.50;0.50;;;;;;;;;;7338611;19;161865;-16
2021/10/15 18:17:50;;;;;;;0.50;0.50;;;;;;;;;;7335687;19;162568;-14
2021/10/15 18:20:19;;;;;;;0.95;0.60;;;;;;;;;;7338093;19;154062;-15
2021/10/15 18:22:47;;;;;;;0.57;0.57;;;;;;;;;;7338988;19;153671;-13
2021/10/15 18:25:15;;;;;;;0.47;0.47;;;;;;;;;;7338318;19;162052;-16
2021/10/15 18:27:43;;;;;;;0.60;0.60;;;;;;;;;;7338147;19;162350;-16
2021/10/15 18:30:13;;;;;;;0.52;0.52;;;;;;;;;;7337166;19;154068;-17
2021/10/15 18:32:41;;;;;;;0.60;0.60;;;;;;;;;;7337999;19;153684;-14
2021/10/15 18:35:09;;;;;;;0.50;0.50;;;;;;;;;;7337822;19;164089;-17
2021/10/15 18:37:37;;;;;;;0.60;0.60;;;;;;;;;;7336154;19;162653;-15
2021/10/15 18:40:05;;;;;;;0.50;0.50;;;;;;;;;;7337881;19;153983;-14
2021/10/15 18:42:33;;;;;;;0.52;0.52;;;;;;;;;;7337335;19;153517;-14
2021/10/15 18:45:03;;;;;;;0.60;0.60;;;;;;;;;;7333862;19;161997;-15
2021/10/15 18:47:34;;;;;;;0.50;0.50;;;;;;;;;;7334971;19;162621;-18
2021/10/15 18:50:05;;;;;;;0.45;0.45;;;;;;;;;;7337969;19;154204;-13
2021/10/15 18:52:33;;;;;;;0.60;0.60;;;;;;;;;;7337679;19;154006;-15
2021/10/15 18:55:01;;;;;;;0.60;0.60;;;;;;;;;;7337339;19;162089;-14
2021/10/15 18:57:29;;;;;;;0.47;0.47;;;;;;;;;;7334048;19;162339;-14
2021/10/15 18:59:57;;;;;;;0.50;0.50;;;;;;;;;;7337431;19;154264;-16
2021/10/15 19:02:26;;;;;;;0.43;0.43;;;;;;;;;;7337416;19;153718;-15
2021/10/15 19:04:54;;;;;;;0.50;0.50;;;;;;;;;;7335777;19;161930;-16
2021/10/15 19:07:22;;;;;;;0.50;0.50;;;;;;;;;;7334102;19;162439;-16
2021/10/15 19:09:50;;;;;;;0.45;0.45;;;;;;;;;;7337602;19;154145;-14
2021/10/15 19:12:18;;;;;;;0.43;0.43;;;;;;;;;;7336240;19;153626;-17
2021/10/15 19:14:46;;;;;;;0.50;0.50;;;;;;;;;;7335425;19;162009;-15
2021/10/15 19:17:14;;;;;;;0.47;0.47;;;;;;;;;;7335359;19;162448;-16
2021/10/15 19:19:42;;;;;;;0.40;0.40;;;;;;;;;;7336476;19;153982;-18
2021/10/15 19:22:12;;;;;;;0.50;0.50;;;;;;;;;;7336789;19;153552;-16
2021/10/15 19:24:47;;;;;;;0.50;0.50;;;;;;;;;;7334915;19;161869;-18
2021/10/15 19:27:15;;;;;;;0.60;0.60;;;;;;;;;;7318454;19;162388;-15
2021/10/15 19:29:43;;;;;;;0.40;0.40;;;;;;;;;;7334747;19;154343;-12
2021/10/15 19:32:12;;;;;;;0.65;0.65;;;;;;;;;;7336530;19;153671;-15
2021/10/15 19:34:40;;;;;;;0.52;0.50;;;;;;;;;;7326193;19;162009;-14
2021/10/15 19:37:08;;;;;;;0.50;0.50;;;;;;;;;;7330159;19;162717;-15
2021/10/15 19:39:36;;;;;;;0.45;0.45;;;;;;;;;;7328202;19;153966;-18
2021/10/15 19:42:06;;;;;;;0.82;0.57;;;;;;;;;;7330312;19;153695;-13
2021/10/15 19:44:34;;;;;;;0.45;0.45;;;;;;;;;;7330528;19;161821;-17
2021/10/15 19:47:02;;;;;;;0.40;0.40;;;;;;;;;;7331530;19;162372;-17
2021/10/15 19:49:30;;;;;;;0.50;0.50;;;;;;;;;;7332452;19;154252;-16
2021/10/15 19:51:58;;;;;;;0.52;0.50;;;;;;;;;;7332303;19;153508;-16
2021/10/15 19:54:26;;;;;;;0.40;0.40;;;;;;;;;;7331194;19;161867;-16
2021/10/15 19:56:54;;;;;;;0.50;0.50;;;;;;;;;;7334227;19;162597;-16
2021/10/15 19:59:22;;;;;;;0.40;0.40;;;;;;;;;;7333512;19;154112;-15
2021/10/15 20:01:50;;;;;;;0.60;0.60;;;;;;;;;;7334738;19;153648;-16
2021/10/15 20:04:19;;;;;;;0.47;0.47;;;;;;;;;;7333566;19;162108;-14
2021/10/15 20:06:47;;;;;;;0.50;0.50;;;;;;;;;;7334973;19;162367;-15
2021/10/15 20:09:15;;;;;;;0.40;0.40;;;;;;;;;;7335028;19;154050;-14
2021/10/15 20:11:44;;;;;;;0.40;0.40;;;;;;;;;;7335359;19;153835;-15
2021/10/15 20:14:12;;;;;;;0.50;0.50;;;;;;;;;;7333510;19;162107;-16
2021/10/15 20:16:39;;;;;;;0.40;0.40;;;;;;;;;;7334070;19;162567;-14
2021/10/15 20:19:08;;;;;;;0.50;0.50;;;;;;;;;;7329642;19;153959;-13
2021/10/15 20:21:36;;;;;;;0.50;0.50;;;;;;;;;;7331624;19;153537;-15
2021/10/15 20:24:06;;;;;;;0.60;0.60;;;;;;;;;;7330904;19;162028;-15
2021/10/15 20:26:35;;;;;;;1.02;0.80;;;;;;;;;;7331122;19;162646;-16
2021/10/15 20:29:04;;;;;;;1.23;0.60;;;;;;;;;;7331602;19;154795;-16
2021/10/15 20:31:32;;;;;;;0.70;0.70;;;;;;;;;;7331217;19;153684;-14
2021/10/15 20:34:01;;;;;;;1.95;0.70;;;;;;;;;;7330966;19;161901;-16
2021/10/15 20:36:30;;;;;;;0.93;0.80;;;;;;;;;;7331882;19;162570;-14
2021/10/15 20:38:58;;;;;;;0.90;0.90;;;;;;;;;;7332858;19;154370;-15
2021/10/15 20:41:26;;;;;;;0.60;0.60;;;;;;;;;;7331001;19;153616;-14
2021/10/15 20:43:54;;;;;;;0.55;0.55;;;;;;;;;;7327649;19;161680;-14
2021/10/15 20:46:23;;;;;;;0.80;0.80;;;;;;;;;;7330271;19;162344;-15
2021/10/15 20:48:51;;;;;;;0.65;0.65;;;;;;;;;;7329675;19;154358;-13
2021/10/15 20:51:19;;;;;;;0.70;0.70;;;;;;;;;;7329404;19;153564;-13
2021/10/15 20:53:47;;;;;;;0.90;0.90;;;;;;;;;;7332543;19;161629;-16
2021/10/15 20:56:19;;;;;;;0.70;0.70;;;;;;;;;;7329136;19;162374;-17
2021/10/15 20:58:47;;;;;;;0.75;0.75;;;;;;;;;;7327948;19;153973;-16
2021/10/15 21:01:16;;;;;;;1.13;0.90;;;;;;;;;;7328918;19;153537;-15
2021/10/15 21:03:44;;;;;;;1.27;0.90;;;;;;;;;;7328174;19;161840;-14
2021/10/15 21:06:13;;;;;;;1.65;1.05;;;;;;;;;;7329765;19;162574;-16
2021/10/15 21:08:41;;;;;;;1.75;1.10;;;;;;;;;;7329294;19;154245;-16
2021/10/15 21:11:09;;;;;;;0.80;0.80;;;;;;;;;;7331727;19;153512;-15
2021/10/15 21:13:39;;;;;;;0.80;0.80;;;;;;;;;;7328336;19;161860;-16
2021/10/15 21:16:07;;;;;;;0.70;0.70;;;;;;;;;;7332504;19;162546;-15
2021/10/15 21:18:35;;;;;;;1.05;0.90;;;;;;;;;;7331028;19;153996;-13
2021/10/15 21:21:03;;;;;;;0.90;0.90;;;;;;;;;;7332434;19;153502;-16
2021/10/15 21:23:31;;;;;;;0.80;0.80;;;;;;;;;;7330594;19;161776;-15
2021/10/15 21:25:59;;;;;;;0.80;0.80;;;;;;;;;;7331226;19;162371;-15
2021/10/15 21:28:27;;;;;;;1.10;1.10;;;;;;;;;;7329798;19;154043;-17
2021/10/15 21:30:57;;;;;;;1.05;1.02;;;;;;;;;;7329792;19;153600;-15
2021/10/15 21:33:25;;;;;;;0.90;0.90;;;;;;;;;;7330949;19;162151;-15
2021/10/15 21:35:54;;;;;;;1.52;0.90;;;;;;;;;;7330895;19;162672;-14
2021/10/15 21:38:22;;;;;;;1.00;0.90;;;;;;;;;;7325440;19;154036;-13
2021/10/15 21:40:51;;;;;;;1.23;1.00;;;;;;;;;;7327445;19;154049;-15
2021/10/15 21:43:19;;;;;;;1.17;1.13;;;;;;;;;;7328556;19;161930;-12
2021/10/15 21:45:47;;;;;;;1.00;1.00;;;;;;;;;;7330897;19;162659;-14
2021/10/15 21:48:17;;;;;;;0.98;0.98;;;;;;;;;;7332252;19;154354;-16
2021/10/15 21:50:48;;;;;;;1.48;1.05;;;;;;;;;;7331904;19;154107;-13
2021/10/15 21:53:17;;;;;;;1.08;1.08;;;;;;;;;;7330086;19;161943;-13
2021/10/15 21:55:46;;;;;;;1.15;1.10;;;;;;;;;;7331731;19;162440;-14
2021/10/15 21:58:14;;;;;;;1.00;1.00;;;;;;;;;;7330624;19;153977;-14
2021/10/15 22:00:43;;;;;;;0.98;0.98;;;;;;;;;;7331681;19;153467;-14
2021/10/15 22:03:12;;;;;;;0.85;0.85;;;;;;;;;;7331365;19;162069;-12
2021/10/15 22:05:40;;;;;;;1.80;1.00;;;;;;;;;;7331181;19;162416;-14
2021/10/15 22:08:08;;;;;;;1.15;1.10;;;;;;;;;;7331086;19;153959;-16
2021/10/15 22:10:36;;;;;;;0.80;0.80;;;;;;;;;;7331615;19;153480;-16
2021/10/15 22:13:04;;;;;;;0.80;0.80;;;;;;;;;;7330984;19;161899;-14
2021/10/15 22:15:35;;;;;;;1.00;1.00;;;;;;;;;;7328748;19;162581;-17
2021/10/15 22:18:03;;;;;;;1.10;1.00;;;;;;;;;;7328982;19;153984;-13
2021/10/15 22:20:30;;;;;;;0.77;0.77;;;;;;;;;;7329810;19;154020;-13
2021/10/15 22:22:58;;;;;;;1.42;1.33;;;;;;;;;;7328098;19;161803;-16
2021/10/15 22:25:26;;;;;;;0.70;0.70;;;;;;;;;;7327701;19;162760;-14
2021/10/15 22:27:54;;;;;;;0.80;0.80;;;;;;;;;;7327941;19;154014;-12
2021/10/15 22:30:22;;;;;;;1.73;0.88;;;;;;;;;;7328326;19;153911;-13
2021/10/15 22:32:51;;;;;;;0.98;0.98;;;;;;;;;;7329742;19;162170;-14
2021/10/15 22:35:20;;;;;;;0.90;0.90;;;;;;;;;;7329536;19;162235;-16
2021/10/15 22:37:51;;;;;;;1.30;0.93;;;;;;;;;;7325489;19;154098;-13
2021/10/15 22:40:19;;;;;;;0.80;0.80;;;;;;;;;;7328164;19;153661;-14
2021/10/15 22:42:48;;;;;;;0.80;0.80;;;;;;;;;;7330662;19;162579;-14
2021/10/15 22:45:16;;;;;;;1.00;0.93;;;;;;;;;;7329779;19;163005;-14
2021/10/15 22:47:45;;;;;;;0.95;0.80;;;;;;;;;;7332953;19;154294;-13
2021/10/15 22:50:13;;;;;;;1.38;1.00;;;;;;;;;;7334064;19;153520;-16
2021/10/15 22:52:41;;;;;;;1.40;0.70;;;;;;;;;;7332385;19;161788;-15
2021/10/15 22:55:11;;;;;;;0.95;0.80;;;;;;;;;;7333521;19;162375;-12
2021/10/15 22:57:40;;;;;;;3.05;0.90;;;;;;;;;;7332519;19;153796;-13
2021/10/15 23:00:12;;;;;;;1.20;0.80;;;;;;;;;;7333984;19;153537;-12
2021/10/15 23:02:41;;;;;;;1.13;0.70;;;;;;;;;;7333181;19;162067;-14
2021/10/15 23:05:11;;;;;;;0.90;0.90;;;;;;;;;;7332985;19;162641;-14
2021/10/15 23:07:40;;;;;;;0.80;0.80;;;;;;;;;;7333360;19;154177;-12
2021/10/15 23:10:09;;;;;;;0.70;0.70;;;;;;;;;;7333514;19;153649;-14
2021/10/15 23:12:37;;;;;;;0.90;0.90;;;;;;;;;;7333029;19;161896;-15
2021/10/15 23:15:06;;;;;;;1.08;0.98;;;;;;;;;;7332606;19;162603;-14
2021/10/15 23:17:38;;;;;;;0.70;0.70;;;;;;;;;;7333190;19;154018;-14
2021/10/15 23:20:07;;;;;;;0.88;0.88;;;;;;;;;;7333097;19;153525;-13
2021/10/15 23:22:35;;;;;;;0.80;0.80;;;;;;;;;;7332717;19;161788;-14
2021/10/15 23:25:04;;;;;;;0.68;0.68;;;;;;;;;;7332622;19;162372;-13
2021/10/15 23:27:34;;;;;;;0.75;0.75;;;;;;;;;;7333006;19;154301;-13
2021/10/15 23:30:03;;;;;;;0.80;0.80;;;;;;;;;;7332879;19;153659;-16
2021/10/15 23:32:31;;;;;;;0.80;0.80;;;;;;;;;;7331212;19;162214;-16
2021/10/15 23:34:59;;;;;;;0.80;0.80;;;;;;;;;;7332095;19;162539;-16
2021/10/15 23:37:27;;;;;;;0.73;0.73;;;;;;;;;;7332726;19;154365;-14
2021/10/15 23:39:55;;;;;;;0.80;0.80;;;;;;;;;;7329937;19;153597;-14
2021/10/15 23:42:23;;;;;;;0.70;0.70;;;;;;;;;;7332131;19;161810;-16
2021/10/15 23:44:51;;;;;;;2.17;0.90;;;;;;;;;;7330158;19;162582;-16
2021/10/15 23:47:19;;;;;;;1.40;0.95;;;;;;;;;;7332485;19;154005;-14
2021/10/15 23:49:47;;;;;;;0.70;0.70;;;;;;;;;;7329024;19;153884;-14
2021/10/15 23:52:15;;;;;;;0.70;0.70;;;;;;;;;;7330783;19;161824;-14
2021/10/15 23:54:43;;;;;;;0.80;0.80;;;;;;;;;;7332020;19;162368;-15
2021/10/15 23:57:11;;;;;;;0.60;0.60;;;;;;;;;;7332132;19;153961;-17
2021/10/15 23:59:39;;;;;;;0.60;0.60;;;;;;;;;;7328574;19;153524;-17
